sensor_id;sensor_type;location;lat;lon;timestamp;pressure;altitude;pressure_sealevel;temperature;humidity
36242;BME280;22283;42.748;12.732;2023-02-28T00:00:32;98092.00;;;3.94;100.00
36242;BME280;22283;42.748;12.732;2023-02-28T00:05:33;98091.25;;;3.92;100.00
36242;BME280;22283;42.748;12.732;2023-02-28T00:10:34;98085.44;;;3.86;100.00
36242;BME280;22283;42.748;12.732;2023-02-28T00:15:35;98079.50;;;3.82;100.00
36242;BME280;22283;42.748;12.732;2023-02-28T00:20:35;98085.88;;;3.77;100.00
36242;BME280;22283;42.748;12.732;2023-02-28T00:25:36;98080.91;;;3.70;100.00
36242;BME280;22283;42.748;12.732;2023-02-28T00:30:36;98076.13;;;3.61;100.00
36242;BME280;22283;42.748;12.732;2023-02-28T00:35:38;98068.66;;;3.52;100.00
36242;BME280;22283;42.748;12.732;2023-02-28T00:40:39;98075.13;;;3.45;100.00
36242;BME280;22283;42.748;12.732;2023-02-28T00:45:40;98069.53;;;3.34;100.00
36242;BME280;22283;42.748;12.732;2023-02-28T00:50:40;98067.31;;;3.25;100.00
36242;BME280;22283;42.748;12.732;2023-02-28T00:55:41;98067.84;;;3.12;100.00
36242;BME280;22283;42.748;12.732;2023-02-28T01:00:42;98067.13;;;3.09;100.00
36242;BME280;22283;42.748;12.732;2023-02-28T01:05:42;98072.34;;;3.09;100.00
36242;BME280;22283;42.748;12.732;2023-02-28T01:10:43;98068.06;;;3.08;100.00
36242;BME280;22283;42.748;12.732;2023-02-28T01:15:49;98064.34;;;3.13;100.00
36242;BME280;22283;42.748;12.732;2023-02-28T01:20:50;98059.66;;;3.20;100.00
36242;BME280;22283;42.748;12.732;2023-02-28T01:25:52;98056.16;;;3.21;100.00
36242;BME280;22283;42.748;12.732;2023-02-28T01:30:53;98053.59;;;3.19;100.00
36242;BME280;22283;42.748;12.732;2023-02-28T01:35:58;98062.44;;;3.17;100.00
36242;BME280;22283;42.748;12.732;2023-02-28T01:41:00;98059.13;;;3.13;100.00
36242;BME280;22283;42.748;12.732;2023-02-28T01:46:00;98055.69;;;3.11;100.00
36242;BME280;22283;42.748;12.732;2023-02-28T01:51:06;98063.34;;;3.16;100.00
36242;BME280;22283;42.748;12.732;2023-02-28T01:56:11;98058.94;;;3.16;100.00
36242;BME280;22283;42.748;12.732;2023-02-28T02:01:24;98060.69;;;3.17;100.00
36242;BME280;22283;42.748;12.732;2023-02-28T02:06:46;98055.91;;;3.07;100.00
36242;BME280;22283;42.748;12.732;2023-02-28T02:11:48;98057.22;;;2.96;100.00
36242;BME280;22283;42.748;12.732;2023-02-28T02:17:31;98048.03;;;2.88;100.00
36242;BME280;22283;42.748;12.732;2023-02-28T02:23:11;98041.34;;;2.81;100.00
36242;BME280;22283;42.748;12.732;2023-02-28T02:39:33;98034.00;;;2.50;100.00
36242;BME280;22283;42.748;12.732;2023-02-28T02:44:46;98027.53;;;2.38;100.00
36242;BME280;22283;42.748;12.732;2023-02-28T02:49:56;98044.09;;;2.37;100.00
36242;BME280;22283;42.748;12.732;2023-02-28T02:55:00;98040.63;;;2.36;100.00
36242;BME280;22283;42.748;12.732;2023-02-28T03:00:04;98037.44;;;2.30;100.00
36242;BME280;22283;42.748;12.732;2023-02-28T03:05:21;98027.44;;;2.19;100.00
36242;BME280;22283;42.748;12.732;2023-02-28T03:15:36;98027.88;;;2.08;100.00
36242;BME280;22283;42.748;12.732;2023-02-28T03:21:02;98025.25;;;2.08;100.00
36242;BME280;22283;42.748;12.732;2023-02-28T03:26:27;98042.03;;;2.03;100.00
36242;BME280;22283;42.748;12.732;2023-02-28T03:31:40;98034.31;;;2.00;100.00
36242;BME280;22283;42.748;12.732;2023-02-28T03:36:46;98037.16;;;1.93;100.00
36242;BME280;22283;42.748;12.732;2023-02-28T03:42:20;98040.78;;;1.89;100.00
36242;BME280;22283;42.748;12.732;2023-02-28T03:47:31;98041.97;;;1.82;100.00
36242;BME280;22283;42.748;12.732;2023-02-28T03:52:37;98030.97;;;1.74;100.00
36242;BME280;22283;42.748;12.732;2023-02-28T03:57:40;98032.00;;;1.70;100.00
36242;BME280;22283;42.748;12.732;2023-02-28T04:02:44;98036.44;;;1.68;100.00
36242;BME280;22283;42.748;12.732;2023-02-28T04:07:45;98042.13;;;1.56;100.00
36242;BME280;22283;42.748;12.732;2023-02-28T04:12:45;98042.47;;;1.46;100.00
36242;BME280;22283;42.748;12.732;2023-02-28T04:17:46;98039.06;;;1.44;100.00
36242;BME280;22283;42.748;12.732;2023-02-28T04:22:47;98037.38;;;1.43;100.00
36242;BME280;22283;42.748;12.732;2023-02-28T04:27:48;98050.25;;;1.48;100.00
36242;BME280;22283;42.748;12.732;2023-02-28T04:32:49;98047.66;;;1.46;100.00
36242;BME280;22283;42.748;12.732;2023-02-28T04:37:50;98040.28;;;1.36;100.00
36242;BME280;22283;42.748;12.732;2023-02-28T04:42:50;98052.22;;;1.18;100.00
36242;BME280;22283;42.748;12.732;2023-02-28T04:47:51;98051.16;;;1.00;100.00
36242;BME280;22283;42.748;12.732;2023-02-28T04:52:52;98056.72;;;0.89;100.00
36242;BME280;22283;42.748;12.732;2023-02-28T04:57:53;98054.94;;;0.91;100.00
36242;BME280;22283;42.748;12.732;2023-02-28T05:02:53;98057.97;;;1.03;100.00
36242;BME280;22283;42.748;12.732;2023-02-28T05:07:54;98060.44;;;1.07;100.00
36242;BME280;22283;42.748;12.732;2023-02-28T05:12:55;98059.25;;;1.16;100.00
36242;BME280;22283;42.748;12.732;2023-02-28T05:17:56;98067.56;;;1.26;100.00
36242;BME280;22283;42.748;12.732;2023-02-28T05:22:58;98067.19;;;1.36;100.00
36242;BME280;22283;42.748;12.732;2023-02-28T05:27:59;98065.25;;;1.41;100.00
36242;BME280;22283;42.748;12.732;2023-02-28T05:33:00;98073.53;;;1.53;100.00
36242;BME280;22283;42.748;12.732;2023-02-28T05:38:01;98071.38;;;1.64;100.00
36242;BME280;22283;42.748;12.732;2023-02-28T05:43:02;98072.53;;;1.79;100.00
36242;BME280;22283;42.748;12.732;2023-02-28T05:48:02;98075.22;;;1.99;100.00
36242;BME280;22283;42.748;12.732;2023-02-28T05:53:03;98072.13;;;2.11;100.00
36242;BME280;22283;42.748;12.732;2023-02-28T05:58:04;98072.41;;;2.26;100.00
36242;BME280;22283;42.748;12.732;2023-02-28T06:03:04;98067.06;;;2.29;100.00
36242;BME280;22283;42.748;12.732;2023-02-28T06:08:05;98073.13;;;2.29;100.00
36242;BME280;22283;42.748;12.732;2023-02-28T06:13:09;98076.03;;;2.43;100.00
36242;BME280;22283;42.748;12.732;2023-02-28T06:18:09;98077.16;;;2.58;100.00
36242;BME280;22283;42.748;12.732;2023-02-28T06:23:10;98088.97;;;2.87;100.00
36242;BME280;22283;42.748;12.732;2023-02-28T06:28:10;98084.06;;;3.00;100.00
36242;BME280;22283;42.748;12.732;2023-02-28T06:33:11;98084.84;;;3.23;100.00
36242;BME280;22283;42.748;12.732;2023-02-28T06:38:12;98092.72;;;3.41;100.00
36242;BME280;22283;42.748;12.732;2023-02-28T06:43:12;98092.22;;;3.71;100.00
36242;BME280;22283;42.748;12.732;2023-02-28T06:48:13;98095.13;;;4.03;100.00
36242;BME280;22283;42.748;12.732;2023-02-28T06:53:14;98107.09;;;4.44;100.00
36242;BME280;22283;42.748;12.732;2023-02-28T06:58:15;98103.41;;;4.66;100.00
36242;BME280;22283;42.748;12.732;2023-02-28T07:03:15;98107.41;;;4.56;100.00
36242;BME280;22283;42.748;12.732;2023-02-28T07:08:16;98094.00;;;4.62;100.00
36242;BME280;22283;42.748;12.732;2023-02-28T07:13:17;98099.16;;;4.81;100.00
36242;BME280;22283;42.748;12.732;2023-02-28T07:18:17;98091.78;;;5.22;100.00
36242;BME280;22283;42.748;12.732;2023-02-28T07:23:19;98096.25;;;5.71;100.00
36242;BME280;22283;42.748;12.732;2023-02-28T07:28:20;98093.66;;;6.18;100.00
36242;BME280;22283;42.748;12.732;2023-02-28T07:33:21;98080.69;;;6.61;94.54
36242;BME280;22283;42.748;12.732;2023-02-28T07:38:21;98097.34;;;7.06;93.08
36242;BME280;22283;42.748;12.732;2023-02-28T07:43:22;98092.47;;;7.28;90.20
36242;BME280;22283;42.748;12.732;2023-02-28T07:48:22;98082.94;;;7.42;88.02
36242;BME280;22283;42.748;12.732;2023-02-28T07:53:23;98077.41;;;7.87;85.64
36242;BME280;22283;42.748;12.732;2023-02-28T07:58:24;98079.84;;;8.05;81.46
36242;BME280;22283;42.748;12.732;2023-02-28T08:03:25;98077.38;;;8.16;78.87
36242;BME280;22283;42.748;12.732;2023-02-28T08:08:26;98079.41;;;8.25;76.37
36242;BME280;22283;42.748;12.732;2023-02-28T08:13:31;98081.38;;;8.36;75.62
36242;BME280;22283;42.748;12.732;2023-02-28T08:18:32;98095.31;;;8.65;76.83
36242;BME280;22283;42.748;12.732;2023-02-28T08:23:33;98091.91;;;8.63;74.59
36242;BME280;22283;42.748;12.732;2023-02-28T08:28:33;98090.16;;;8.64;75.38
36242;BME280;22283;42.748;12.732;2023-02-28T08:33:34;98082.16;;;8.91;72.44
36242;BME280;22283;42.748;12.732;2023-02-28T08:38:35;98081.56;;;9.13;75.11
36242;BME280;22283;42.748;12.732;2023-02-28T08:43:37;98083.44;;;8.98;72.24
36242;BME280;22283;42.748;12.732;2023-02-28T08:48:38;98080.16;;;8.81;72.33
36242;BME280;22283;42.748;12.732;2023-02-28T08:53:39;98080.47;;;8.77;73.91
36242;BME280;22283;42.748;12.732;2023-02-28T08:58:40;98083.22;;;8.75;73.44
36242;BME280;22283;42.748;12.732;2023-02-28T09:03:42;98088.19;;;8.93;76.67
36242;BME280;22283;42.748;12.732;2023-02-28T09:08:43;98084.00;;;9.28;75.31
36242;BME280;22283;42.748;12.732;2023-02-28T09:13:45;98085.06;;;9.51;75.70
36242;BME280;22283;42.748;12.732;2023-02-28T09:18:46;98077.44;;;9.72;73.89
36242;BME280;22283;42.748;12.732;2023-02-28T09:23:47;98070.69;;;10.05;72.47
36242;BME280;22283;42.748;12.732;2023-02-28T09:28:49;98062.94;;;10.27;69.43
36242;BME280;22283;42.748;12.732;2023-02-28T09:33:52;98059.50;;;10.62;68.63
36242;BME280;22283;42.748;12.732;2023-02-28T09:38:53;98053.63;;;11.05;68.93
36242;BME280;22283;42.748;12.732;2023-02-28T09:43:59;98045.97;;;11.47;63.83
36242;BME280;22283;42.748;12.732;2023-02-28T09:49:12;98033.22;;;11.97;57.73
36242;BME280;22283;42.748;12.732;2023-02-28T09:54:24;98033.41;;;12.16;56.21
36242;BME280;22283;42.748;12.732;2023-02-28T10:09:38;98025.72;;;12.02;52.86
36242;BME280;22283;42.748;12.732;2023-02-28T10:14:40;98022.09;;;12.03;52.12
36242;BME280;22283;42.748;12.732;2023-02-28T10:19:59;98013.59;;;12.32;51.26
36242;BME280;22283;42.748;12.732;2023-02-28T10:25:28;98023.41;;;12.52;50.05
36242;BME280;22283;42.748;12.732;2023-02-28T10:30:29;98016.19;;;12.96;61.02
36242;BME280;22283;42.748;12.732;2023-02-28T10:35:30;98013.69;;;13.46;50.01
36242;BME280;22283;42.748;12.732;2023-02-28T10:40:33;98015.09;;;13.50;47.92
36242;BME280;22283;42.748;12.732;2023-02-28T10:45:35;98020.22;;;13.42;46.61
36242;BME280;22283;42.748;12.732;2023-02-28T10:56:19;97994.22;;;13.15;46.52
36242;BME280;22283;42.748;12.732;2023-02-28T11:01:41;97993.78;;;12.89;47.44
36242;BME280;22283;42.748;12.732;2023-02-28T11:06:42;97996.09;;;13.03;47.95
36242;BME280;22283;42.748;12.732;2023-02-28T11:11:46;97986.91;;;13.07;47.05
36242;BME280;22283;42.748;12.732;2023-02-28T11:16:48;97983.66;;;13.55;46.58
36242;BME280;22283;42.748;12.732;2023-02-28T11:21:59;97993.31;;;13.56;47.19
36242;BME280;22283;42.748;12.732;2023-02-28T11:27:00;97976.84;;;13.72;48.12
36242;BME280;22283;42.748;12.732;2023-02-28T11:37:14;97973.09;;;13.74;46.58
36242;BME280;22283;42.748;12.732;2023-02-28T11:43:01;97971.28;;;13.85;47.47
36242;BME280;22283;42.748;12.732;2023-02-28T11:48:17;97961.09;;;13.90;46.60
36242;BME280;22283;42.748;12.732;2023-02-28T12:25:24;97923.06;;;13.49;46.81
36242;BME280;22283;42.748;12.732;2023-02-28T12:30:51;97908.19;;;13.37;46.59
36242;BME280;22283;42.748;12.732;2023-02-28T12:35:59;97911.28;;;13.42;47.33
36242;BME280;22283;42.748;12.732;2023-02-28T12:41:02;97910.59;;;13.49;47.02
36242;BME280;22283;42.748;12.732;2023-02-28T12:46:14;97901.38;;;13.44;47.44
36242;BME280;22283;42.748;12.732;2023-02-28T12:51:18;97906.53;;;13.36;47.04
36242;BME280;22283;42.748;12.732;2023-02-28T13:12:19;97861.19;;;13.37;45.81
36242;BME280;22283;42.748;12.732;2023-02-28T13:17:21;97871.81;;;13.27;46.46
36242;BME280;22283;42.748;12.732;2023-02-28T13:27:37;97857.47;;;13.09;48.60
36242;BME280;22283;42.748;12.732;2023-02-28T13:32:39;97859.53;;;13.26;47.48
36242;BME280;22283;42.748;12.732;2023-02-28T13:37:45;97866.56;;;13.16;48.06
36242;BME280;22283;42.748;12.732;2023-02-28T13:42:50;97851.97;;;13.32;48.46
36242;BME280;22283;42.748;12.732;2023-02-28T14:09:19;97851.81;;;12.93;48.67
36242;BME280;22283;42.748;12.732;2023-02-28T14:19:37;97849.31;;;12.70;49.42
36242;BME280;22283;42.748;12.732;2023-02-28T14:24:46;97863.94;;;12.13;51.66
36242;BME280;22283;42.748;12.732;2023-02-28T14:40:41;97832.00;;;11.39;52.96
36242;BME280;22283;42.748;12.732;2023-02-28T14:45:41;97837.69;;;11.35;53.31
36242;BME280;22283;42.748;12.732;2023-02-28T14:50:48;97847.72;;;11.52;52.04
36242;BME280;22283;42.748;12.732;2023-02-28T14:55:50;97831.69;;;11.65;50.58
36242;BME280;22283;42.748;12.732;2023-02-28T15:00:55;97847.31;;;11.68;50.53
36242;BME280;22283;42.748;12.732;2023-02-28T15:05:59;97843.19;;;11.43;51.25
36242;BME280;22283;42.748;12.732;2023-02-28T15:16:21;97861.91;;;10.96;53.03
36242;BME280;22283;42.748;12.732;2023-02-28T15:21:27;97863.25;;;10.91;53.35
36242;BME280;22283;42.748;12.732;2023-02-28T15:26:32;97843.03;;;10.67;54.65
36242;BME280;22283;42.748;12.732;2023-02-28T15:31:39;97849.28;;;10.55;54.83
36242;BME280;22283;42.748;12.732;2023-02-28T15:36:41;97852.88;;;10.43;55.64
36242;BME280;22283;42.748;12.732;2023-02-28T15:41:42;97856.22;;;10.45;55.70
36242;BME280;22283;42.748;12.732;2023-02-28T15:46:53;97854.56;;;10.44;55.25
36242;BME280;22283;42.748;12.732;2023-02-28T15:51:57;97851.19;;;10.30;55.06
36242;BME280;22283;42.748;12.732;2023-02-28T15:57:04;97857.09;;;10.10;57.21
36242;BME280;22283;42.748;12.732;2023-02-28T16:02:17;97864.88;;;9.28;60.31
36242;BME280;22283;42.748;12.732;2023-02-28T16:07:19;97863.06;;;9.05;61.50
36242;BME280;22283;42.748;12.732;2023-02-28T16:12:27;97860.31;;;8.94;61.27
36242;BME280;22283;42.748;12.732;2023-02-28T16:17:33;97868.34;;;9.05;62.26
36242;BME280;22283;42.748;12.732;2023-02-28T16:22:34;97846.72;;;9.00;61.66
36242;BME280;22283;42.748;12.732;2023-02-28T16:27:36;97842.78;;;9.05;60.19
36242;BME280;22283;42.748;12.732;2023-02-28T16:32:37;97847.22;;;9.05;61.06
36242;BME280;22283;42.748;12.732;2023-02-28T16:37:40;97854.84;;;8.97;61.41
36242;BME280;22283;42.748;12.732;2023-02-28T16:42:41;97864.56;;;8.96;62.11
36242;BME280;22283;42.748;12.732;2023-02-28T16:47:42;97849.97;;;8.91;62.35
36242;BME280;22283;42.748;12.732;2023-02-28T16:52:43;97856.13;;;8.78;62.61
36242;BME280;22283;42.748;12.732;2023-02-28T16:57:51;97854.66;;;8.74;63.13
36242;BME280;22283;42.748;12.732;2023-02-28T17:02:52;97849.59;;;8.58;63.00
36242;BME280;22283;42.748;12.732;2023-02-28T17:07:53;97850.44;;;8.59;62.00
36242;BME280;22283;42.748;12.732;2023-02-28T17:12:54;97870.31;;;8.52;62.70
36242;BME280;22283;42.748;12.732;2023-02-28T17:17:54;97883.94;;;8.31;63.69
36242;BME280;22283;42.748;12.732;2023-02-28T17:22:56;97888.19;;;8.34;63.49
36242;BME280;22283;42.748;12.732;2023-02-28T17:27:56;97894.09;;;8.25;64.87
36242;BME280;22283;42.748;12.732;2023-02-28T17:32:57;97895.13;;;8.22;65.41
36242;BME280;22283;42.748;12.732;2023-02-28T17:37:58;97897.13;;;8.31;62.86
36242;BME280;22283;42.748;12.732;2023-02-28T17:42:58;97890.44;;;8.40;62.99
36242;BME280;22283;42.748;12.732;2023-02-28T17:47:59;97889.91;;;8.60;61.80
36242;BME280;22283;42.748;12.732;2023-02-28T17:53:00;97889.38;;;8.68;60.71
36242;BME280;22283;42.748;12.732;2023-02-28T17:58:01;97879.22;;;8.75;60.74
36242;BME280;22283;42.748;12.732;2023-02-28T18:03:03;97879.34;;;8.73;61.04
36242;BME280;22283;42.748;12.732;2023-02-28T18:08:04;97890.75;;;8.61;61.48
36242;BME280;22283;42.748;12.732;2023-02-28T18:13:04;97891.41;;;8.52;62.68
36242;BME280;22283;42.748;12.732;2023-02-28T18:18:05;97892.88;;;8.56;61.70
36242;BME280;22283;42.748;12.732;2023-02-28T18:23:07;97887.81;;;8.53;63.10
36242;BME280;22283;42.748;12.732;2023-02-28T18:28:07;97888.66;;;8.41;63.25
36242;BME280;22283;42.748;12.732;2023-02-28T18:33:08;97898.75;;;8.47;63.70
36242;BME280;22283;42.748;12.732;2023-02-28T18:38:16;97904.06;;;8.59;63.25
36242;BME280;22283;42.748;12.732;2023-02-28T18:43:19;97892.03;;;8.55;63.92
36242;BME280;22283;42.748;12.732;2023-02-28T18:48:20;97880.41;;;8.58;64.51
36242;BME280;22283;42.748;12.732;2023-02-28T18:53:22;97882.53;;;8.53;65.65
36242;BME280;22283;42.748;12.732;2023-02-28T18:58:23;97880.41;;;8.45;67.07
36242;BME280;22283;42.748;12.732;2023-02-28T19:03:24;97882.94;;;8.47;66.95
36242;BME280;22283;42.748;12.732;2023-02-28T19:08:25;97878.75;;;8.44;67.13
36242;BME280;22283;42.748;12.732;2023-02-28T19:13:26;97881.25;;;8.46;66.65
36242;BME280;22283;42.748;12.732;2023-02-28T19:18:26;97896.44;;;8.55;65.78
36242;BME280;22283;42.748;12.732;2023-02-28T19:23:27;97906.56;;;8.61;64.62
36242;BME280;22283;42.748;12.732;2023-02-28T19:28:31;97894.44;;;8.46;66.10
36242;BME280;22283;42.748;12.732;2023-02-28T19:33:32;97909.72;;;8.41;68.48
36242;BME280;22283;42.748;12.732;2023-02-28T19:38:33;97901.63;;;8.44;68.28
36242;BME280;22283;42.748;12.732;2023-02-28T19:43:34;97899.69;;;8.33;70.66
36242;BME280;22283;42.748;12.732;2023-02-28T19:48:36;97883.09;;;8.31;70.74
36242;BME280;22283;42.748;12.732;2023-02-28T19:53:39;97882.06;;;8.21;72.81
36242;BME280;22283;42.748;12.732;2023-02-28T19:58:40;97874.66;;;8.13;74.79
36242;BME280;22283;42.748;12.732;2023-02-28T20:03:46;97853.47;;;8.02;76.49
36242;BME280;22283;42.748;12.732;2023-02-28T20:08:47;97843.63;;;7.91;78.64
36242;BME280;22283;42.748;12.732;2023-02-28T20:13:51;97865.47;;;7.93;77.95
36242;BME280;22283;42.748;12.732;2023-02-28T20:18:52;97862.41;;;7.99;74.73
36242;BME280;22283;42.748;12.732;2023-02-28T20:23:52;97852.28;;;7.93;74.63
36242;BME280;22283;42.748;12.732;2023-02-28T20:28:53;97838.16;;;7.94;75.63
36242;BME280;22283;42.748;12.732;2023-02-28T20:33:54;97835.78;;;7.64;80.12
36242;BME280;22283;42.748;12.732;2023-02-28T20:38:55;97847.56;;;7.58;81.95
36242;BME280;22283;42.748;12.732;2023-02-28T20:43:57;97854.28;;;7.50;82.13
36242;BME280;22283;42.748;12.732;2023-02-28T20:48:58;97848.13;;;7.36;85.49
36242;BME280;22283;42.748;12.732;2023-02-28T20:53:59;97865.59;;;7.37;86.08
36242;BME280;22283;42.748;12.732;2023-02-28T20:58:59;97847.50;;;7.19;84.65
36242;BME280;22283;42.748;12.732;2023-02-28T21:04:02;97852.31;;;7.12;87.09
36242;BME280;22283;42.748;12.732;2023-02-28T21:09:07;97830.53;;;7.10;88.18
36242;BME280;22283;42.748;12.732;2023-02-28T21:14:14;97833.94;;;6.98;89.10
36242;BME280;22283;42.748;12.732;2023-02-28T21:19:15;97841.38;;;6.91;89.14
36242;BME280;22283;42.748;12.732;2023-02-28T21:24:18;97842.59;;;6.85;90.59
36242;BME280;22283;42.748;12.732;2023-02-28T21:29:18;97848.13;;;6.81;92.21
36242;BME280;22283;42.748;12.732;2023-02-28T21:34:19;97843.38;;;6.73;93.25
36242;BME280;22283;42.748;12.732;2023-02-28T21:39:22;97830.69;;;6.65;95.93
36242;BME280;22283;42.748;12.732;2023-02-28T21:44:25;97823.19;;;6.59;99.63
36242;BME280;22283;42.748;12.732;2023-02-28T21:49:27;97809.56;;;6.53;100.00
36242;BME280;22283;42.748;12.732;2023-02-28T21:54:28;97795.97;;;6.46;100.00
36242;BME280;22283;42.748;12.732;2023-02-28T21:59:29;97793.44;;;6.45;100.00
36242;BME280;22283;42.748;12.732;2023-02-28T22:04:29;97787.44;;;6.43;100.00
36242;BME280;22283;42.748;12.732;2023-02-28T22:09:30;97784.69;;;6.44;100.00
36242;BME280;22283;42.748;12.732;2023-02-28T22:14:31;97771.13;;;6.37;100.00
36242;BME280;22283;42.748;12.732;2023-02-28T22:19:32;97778.25;;;6.50;99.19
36242;BME280;22283;42.748;12.732;2023-02-28T22:24:35;97768.63;;;6.77;95.25
36242;BME280;22283;42.748;12.732;2023-02-28T22:29:36;97754.69;;;6.89;91.13
36242;BME280;22283;42.748;12.732;2023-02-28T22:34:36;97761.44;;;6.94;90.24
36242;BME280;22283;42.748;12.732;2023-02-28T22:39:37;97760.78;;;6.90;91.64
36242;BME280;22283;42.748;12.732;2023-02-28T22:44:37;97751.31;;;6.87;93.53
36242;BME280;22283;42.748;12.732;2023-02-28T22:49:38;97736.41;;;6.74;94.62
36242;BME280;22283;42.748;12.732;2023-02-28T22:54:39;97736.81;;;6.95;90.69
36242;BME280;22283;42.748;12.732;2023-02-28T22:59:39;97728.38;;;6.89;92.30
36242;BME280;22283;42.748;12.732;2023-02-28T23:04:41;97727.81;;;6.84;93.09
36242;BME280;22283;42.748;12.732;2023-02-28T23:09:42;97728.59;;;6.86;91.67
36242;BME280;22283;42.748;12.732;2023-02-28T23:14:43;97730.25;;;6.87;90.80
36242;BME280;22283;42.748;12.732;2023-02-28T23:19:43;97721.50;;;7.01;87.46
36242;BME280;22283;42.748;12.732;2023-02-28T23:24:44;97722.38;;;7.14;85.69
36242;BME280;22283;42.748;12.732;2023-02-28T23:29:45;97711.34;;;7.22;82.96
36242;BME280;22283;42.748;12.732;2023-02-28T23:34:45;97715.72;;;7.49;80.47
36242;BME280;22283;42.748;12.732;2023-02-28T23:39:47;97706.00;;;7.36;81.19
36242;BME280;22283;42.748;12.732;2023-02-28T23:44:47;97712.34;;;7.47;79.79
36242;BME280;22283;42.748;12.732;2023-02-28T23:49:48;97700.66;;;7.51;80.83
36242;BME280;22283;42.748;12.732;2023-02-28T23:54:49;97686.00;;;7.47;81.99
36242;BME280;22283;42.748;12.732;2023-02-28T23:59:49;97685.75;;;7.24;84.29
